createdAt,value
2023-05-01T00:03:53.344Z,3.40
2023-05-01T00:08:11.426Z,3.40
2023-05-01T00:12:29.059Z,3.20
2023-05-01T00:16:48.026Z,3.10
2023-05-01T00:21:07.370Z,3.00
2023-05-01T00:25:24.631Z,2.90
2023-05-01T00:29:42.281Z,3.10
2023-05-01T00:33:59.504Z,3.10
2023-05-01T00:38:16.787Z,3.10
2023-05-01T00:42:39.502Z,3.10
2023-05-01T00:47:00.214Z,3.00
2023-05-01T00:51:17.735Z,2.90
2023-05-01T00:55:35.996Z,2.90
2023-05-01T00:59:53.446Z,2.80
2023-05-01T01:04:11.201Z,2.80
2023-05-01T01:08:39.461Z,2.50
2023-05-01T01:13:13.502Z,2.50
2023-05-01T01:17:42.676Z,2.60
2023-05-01T01:22:07.201Z,2.60
2023-05-01T01:26:46.024Z,2.70
2023-05-01T01:31:23.492Z,2.60
2023-05-01T01:35:46.691Z,2.60
2023-05-01T01:40:10.504Z,2.50
2023-05-01T01:44:42.469Z,2.40
2023-05-01T01:49:02.190Z,2.40
2023-05-01T01:53:20.930Z,2.20
2023-05-01T01:57:40.160Z,2.30
2023-05-01T02:01:59.096Z,2.40
2023-05-01T02:06:17.983Z,2.30
2023-05-01T02:10:36.270Z,2.20
2023-05-01T02:14:54.658Z,2.20
2023-05-01T02:19:13.303Z,2.20
2023-05-01T02:23:32.090Z,2.20
2023-05-01T02:28:02.726Z,2.20
2023-05-01T02:32:20.438Z,2.20
2023-05-01T02:36:38.162Z,2.20
2023-05-01T02:40:58.367Z,2.10
2023-05-01T02:45:22.300Z,2.10
2023-05-01T02:49:41.318Z,2.10
2023-05-01T02:53:59.575Z,2.10
2023-05-01T02:58:18.206Z,2.10
2023-05-01T03:02:36.032Z,2.00
2023-05-01T03:06:54.303Z,1.90
2023-05-01T03:11:11.565Z,1.90
2023-05-01T03:15:31.139Z,1.90
2023-05-01T03:19:49.635Z,1.90
2023-05-01T03:24:07.235Z,1.90
2023-05-01T03:28:24.450Z,2.00
2023-05-01T03:32:41.940Z,2.00
2023-05-01T03:36:59.229Z,2.00
2023-05-01T03:41:16.480Z,2.00
2023-05-01T03:45:34.154Z,1.90
2023-05-01T03:49:51.414Z,1.80
2023-05-01T03:54:08.764Z,1.70
2023-05-01T03:58:26.019Z,1.70
2023-05-01T04:02:43.328Z,1.70
2023-05-01T04:07:00.842Z,1.80
2023-05-01T04:11:18.577Z,2.10
2023-05-01T04:15:37.219Z,2.30
2023-05-01T04:19:55.400Z,2.30
2023-05-01T04:24:13.351Z,2.30
2023-05-01T04:28:31.501Z,2.30
2023-05-01T04:32:48.782Z,2.30
2023-05-01T04:37:08.932Z,2.40
2023-05-01T04:41:26.364Z,2.50
2023-05-01T04:45:43.675Z,2.50
2023-05-01T04:50:01.319Z,2.60
2023-05-01T04:54:18.651Z,2.70
2023-05-01T04:58:35.926Z,2.90
2023-05-01T05:02:53.301Z,3.00
2023-05-01T05:07:10.564Z,3.10
2023-05-01T05:11:27.997Z,3.30
2023-05-01T05:15:45.542Z,3.50
2023-05-01T05:20:02.970Z,3.70
2023-05-01T05:24:20.414Z,3.80
2023-05-01T05:28:37.692Z,4.00
2023-05-01T05:32:55.264Z,4.20
2023-05-01T05:37:12.868Z,4.30
2023-05-01T05:41:30.302Z,4.60
2023-05-01T05:45:47.928Z,4.90
2023-05-01T05:50:07.487Z,5.30
2023-05-01T05:54:24.995Z,5.50
2023-05-01T05:58:42.525Z,5.60
2023-05-01T06:02:59.774Z,5.90
2023-05-01T06:07:17.541Z,6.10
2023-05-01T06:11:34.805Z,6.30
2023-05-01T06:15:52.519Z,6.70
2023-05-01T06:20:10.907Z,6.90
2023-05-01T06:24:28.473Z,7.00
2023-05-01T06:28:45.968Z,7.10
2023-05-01T06:33:03.410Z,7.10
2023-05-01T06:37:21.139Z,7.30
2023-05-01T06:41:38.819Z,7.50
2023-05-01T06:45:56.348Z,7.80
2023-05-01T06:50:14.229Z,8.00
2023-05-01T06:54:31.528Z,8.40
2023-05-01T06:58:48.738Z,8.70
2023-05-01T07:03:06.406Z,9.00
2023-05-01T07:07:24.263Z,9.40
2023-05-01T07:11:42.860Z,9.70
2023-05-01T07:16:02.069Z,9.90
2023-05-01T07:20:19.379Z,10.20
2023-05-01T07:24:36.646Z,10.50
2023-05-01T07:28:53.920Z,10.60
2023-05-01T07:33:12.110Z,11.00
2023-05-01T07:37:30.214Z,11.30
2023-05-01T07:41:47.544Z,11.80
2023-05-01T07:46:05.764Z,12.00
2023-05-01T07:50:23.862Z,12.70
2023-05-01T07:54:42.119Z,13.60
2023-05-01T07:58:59.339Z,14.10
2023-05-01T08:03:16.884Z,15.60
2023-05-01T08:07:34.604Z,16.50
2023-05-01T08:11:52.048Z,15.60
2023-05-01T08:16:09.559Z,16.20
2023-05-01T08:20:26.935Z,17.00
2023-05-01T08:24:44.240Z,16.20
2023-05-01T08:29:01.490Z,16.50
2023-05-01T08:33:19.965Z,15.50
2023-05-01T08:37:37.331Z,16.60
2023-05-01T08:41:56.215Z,16.10
2023-05-01T08:46:15.798Z,17.00
2023-05-01T08:50:37.123Z,17.90
2023-05-01T08:54:56.917Z,17.00
2023-05-01T08:59:16.157Z,17.70
2023-05-01T09:03:33.877Z,18.70
2023-05-01T09:07:51.567Z,19.00
2023-05-01T09:12:27.864Z,18.80
2023-05-01T09:16:45.198Z,18.00
2023-05-01T09:21:04.338Z,18.90
2023-05-01T09:25:21.695Z,18.90
2023-05-01T09:29:41.908Z,18.70
2023-05-01T09:34:07.511Z,18.00
2023-05-01T09:38:26.936Z,18.20
2023-05-01T09:42:53.136Z,19.00
2023-05-01T09:47:10.701Z,19.20
2023-05-01T09:51:30.821Z,19.20
2023-05-01T09:56:02.342Z,20.10
2023-05-01T10:00:30.283Z,19.10
2023-05-01T10:04:48.679Z,19.60
2023-05-01T10:09:08.348Z,21.20
2023-05-01T10:13:26.128Z,20.60
2023-05-01T10:17:57.272Z,19.60
2023-05-01T10:22:27.467Z,19.50
2023-05-01T10:27:06.761Z,20.50
2023-05-01T10:31:27.904Z,20.20
2023-05-01T10:35:51.002Z,20.00
2023-05-01T10:40:39.683Z,18.70
2023-05-01T10:45:32.749Z,19.10
2023-05-01T10:50:12.251Z,19.60
2023-05-01T10:54:31.623Z,19.10
2023-05-01T10:58:59.083Z,20.40
2023-05-01T11:03:22.534Z,20.70
2023-05-01T11:07:41.021Z,21.50
2023-05-01T11:11:58.307Z,22.60
2023-05-01T11:16:38.041Z,22.10
2023-05-01T11:20:55.704Z,22.70
2023-05-01T11:25:24.390Z,21.10
2023-05-01T11:29:44.815Z,21.10
2023-05-01T11:34:03.163Z,20.80
2023-05-01T11:38:21.313Z,22.40
2023-05-01T11:42:38.703Z,22.80
2023-05-01T11:47:01.360Z,22.50
2023-05-01T11:51:19.286Z,21.00
2023-05-01T11:55:36.773Z,21.30
2023-05-01T11:59:54.616Z,22.00
2023-05-01T12:04:13.200Z,21.20
2023-05-01T12:08:30.563Z,22.00
2023-05-01T12:12:48.395Z,21.50
2023-05-01T12:17:08.383Z,22.00
2023-05-01T12:21:26.425Z,20.90
2023-05-01T12:25:45.900Z,21.90
2023-05-01T12:30:03.379Z,21.50
2023-05-01T12:34:30.668Z,20.70
2023-05-01T12:39:09.449Z,20.90
2023-05-01T12:43:35.329Z,21.20
2023-05-01T12:47:52.983Z,21.60
2023-05-01T12:52:10.307Z,22.10
2023-05-01T12:56:29.573Z,21.70
2023-05-01T13:00:55.363Z,19.90
2023-05-01T13:05:12.904Z,20.30
2023-05-01T13:09:33.244Z,21.20
2023-05-01T13:13:50.750Z,22.50
2023-05-01T13:18:08.935Z,21.70
2023-05-01T13:22:34.582Z,21.30
2023-05-01T13:26:59.676Z,20.90
2023-05-01T13:31:16.998Z,20.70
2023-05-01T13:35:34.244Z,19.40
2023-05-01T13:40:00.417Z,20.20
2023-05-01T13:44:19.500Z,20.40
2023-05-01T13:48:36.935Z,20.60
2023-05-01T13:52:54.227Z,20.00
2023-05-01T13:57:12.481Z,20.40
2023-05-01T14:01:29.985Z,20.70
2023-05-01T14:05:48.103Z,20.90
2023-05-01T14:10:09.600Z,20.10
2023-05-01T14:14:27.343Z,19.90
2023-05-01T14:18:46.429Z,19.80
2023-05-01T14:23:05.555Z,19.80
2023-05-01T14:27:23.314Z,20.10
2023-05-01T14:31:40.618Z,19.90
2023-05-01T14:35:58.313Z,19.50
2023-05-01T14:40:18.252Z,19.60
2023-05-01T14:44:40.171Z,19.40
2023-05-01T14:48:58.717Z,19.40
2023-05-01T14:53:16.195Z,19.50
2023-05-01T14:57:33.633Z,18.90
2023-05-01T15:01:50.995Z,18.80
2023-05-01T15:06:09.601Z,19.20
2023-05-01T15:10:27.064Z,19.30
2023-05-01T15:14:44.894Z,19.40
2023-05-01T15:19:03.425Z,19.50
2023-05-01T15:23:21.444Z,19.20
2023-05-01T15:27:38.880Z,19.00
2023-05-01T15:32:08.172Z,18.70
2023-05-01T15:36:28.682Z,18.60
2023-05-01T15:40:47.185Z,18.10
2023-05-01T15:45:05.280Z,18.50
2023-05-01T15:49:23.034Z,18.40
2023-05-01T15:53:40.468Z,18.40
2023-05-01T15:57:57.992Z,18.30
2023-05-01T16:02:15.480Z,18.20
2023-05-01T16:06:34.292Z,18.10
2023-05-01T16:10:53.964Z,17.80
2023-05-01T16:15:12.139Z,17.40
2023-05-01T16:19:30.162Z,17.30
2023-05-01T16:23:47.867Z,17.20
2023-05-01T16:28:06.275Z,17.10
2023-05-01T16:32:24.505Z,17.00
2023-05-01T16:36:46.555Z,16.90
2023-05-01T16:41:05.323Z,16.80
2023-05-01T16:45:22.743Z,16.70
2023-05-01T16:49:43.985Z,16.60
2023-05-01T16:54:05.844Z,16.50
2023-05-01T16:58:23.084Z,16.40
2023-05-01T17:02:45.623Z,16.50
2023-05-01T17:07:04.141Z,16.50
2023-05-01T17:11:22.619Z,16.40
2023-05-01T17:15:39.853Z,16.30
2023-05-01T17:19:57.517Z,16.10
2023-05-01T17:24:15.130Z,16.10
2023-05-01T17:28:32.416Z,16.10
2023-05-01T17:32:50.022Z,16.00
2023-05-01T17:37:09.059Z,16.00
2023-05-01T17:41:26.808Z,15.80
2023-05-01T17:45:46.620Z,15.90
2023-05-01T17:50:04.867Z,15.80
2023-05-01T17:54:22.269Z,15.60
2023-05-01T17:58:40.832Z,15.50
2023-05-01T18:02:58.959Z,15.30
2023-05-01T18:07:16.542Z,15.00
2023-05-01T18:11:34.256Z,14.80
2023-05-01T18:15:52.078Z,14.70
2023-05-01T18:20:09.981Z,14.10
2023-05-01T18:24:27.429Z,13.80
2023-05-01T18:28:45.164Z,13.50
2023-05-01T18:33:02.686Z,13.30
2023-05-01T18:37:20.545Z,13.00
2023-05-01T18:41:38.269Z,12.80
2023-05-01T18:46:06.643Z,12.70
2023-05-01T18:50:24.226Z,12.50
2023-05-01T18:54:41.802Z,12.40
2023-05-01T18:58:59.048Z,12.40
2023-05-01T19:03:18.818Z,12.50
2023-05-01T19:07:36.681Z,12.40
2023-05-01T19:11:54.330Z,12.50
2023-05-01T19:16:11.878Z,12.50
2023-05-01T19:20:30.648Z,12.30
2023-05-01T19:24:47.931Z,12.30
2023-05-01T19:29:05.692Z,12.40
2023-05-01T19:33:23.995Z,12.30
2023-05-01T19:37:41.273Z,12.20
2023-05-01T19:41:59.167Z,12.20
2023-05-01T19:46:16.530Z,12.20
2023-05-01T19:50:33.873Z,12.10
2023-05-01T19:54:51.274Z,12.10
2023-05-01T19:59:08.740Z,12.10
2023-05-01T20:03:26.183Z,12.20
2023-05-01T20:07:43.535Z,12.20
2023-05-01T20:12:00.740Z,12.20
2023-05-01T20:16:19.213Z,12.10
2023-05-01T20:20:36.818Z,12.00
2023-05-01T20:24:54.161Z,12.00
2023-05-01T20:29:11.441Z,12.00
2023-05-01T20:33:28.768Z,11.80
2023-05-01T20:37:46.015Z,11.80
2023-05-01T20:42:05.336Z,11.80
2023-05-01T20:46:23.133Z,11.60
2023-05-01T20:50:45.772Z,11.50
2023-05-01T20:55:03.190Z,11.50
2023-05-01T20:59:20.608Z,11.50
2023-05-01T21:03:38.567Z,11.60
2023-05-01T21:07:58.238Z,11.60
2023-05-01T21:12:20.482Z,11.50
2023-05-01T21:16:39.078Z,11.50
2023-05-01T21:20:58.306Z,11.50
2023-05-01T21:25:27.105Z,11.50
2023-05-01T21:29:44.468Z,11.40
2023-05-01T21:34:03.251Z,11.50
2023-05-01T21:38:22.872Z,11.50
2023-05-01T21:42:40.659Z,11.50
2023-05-01T21:46:58.290Z,11.40
2023-05-01T21:51:15.940Z,11.50
2023-05-01T21:55:34.073Z,11.60
2023-05-01T21:59:52.309Z,11.70
2023-05-01T22:04:09.651Z,11.70
2023-05-01T22:08:26.951Z,11.80
2023-05-01T22:12:45.393Z,11.80
2023-05-01T22:17:02.770Z,11.70
2023-05-01T22:21:20.092Z,11.70
2023-05-01T22:25:37.445Z,11.70
2023-05-01T22:29:54.664Z,11.60
2023-05-01T22:34:12.025Z,11.50
2023-05-01T22:38:29.516Z,11.40
2023-05-01T22:42:47.424Z,11.50
2023-05-01T22:47:04.686Z,11.50
2023-05-01T22:51:21.943Z,11.60
2023-05-01T22:55:39.488Z,11.40
2023-05-01T22:59:56.823Z,11.40
2023-05-01T23:04:14.621Z,11.30
2023-05-01T23:08:34.097Z,11.30
2023-05-01T23:12:51.656Z,11.20
2023-05-01T23:17:09.079Z,11.20
2023-05-01T23:21:26.489Z,11.10
2023-05-01T23:25:49.300Z,11.00
2023-05-01T23:30:08.133Z,11.00
2023-05-01T23:34:25.456Z,11.00
2023-05-01T23:38:43.498Z,11.10
2023-05-01T23:43:00.733Z,11.10
2023-05-01T23:47:18.544Z,11.10
2023-05-01T23:51:36.524Z,11.00
2023-05-01T23:55:54.491Z,11.00
